Andalusia, Illinois
Current Conditions -  °F | °C
As of 5:52 AM on Tuesday 27 Jan 2015 (Local Time) from KMLI Reporting Station
Overcast Overcast  
Wind Chill: 27°   Ceiling: 3700
Heat Index: 34°   Visibility: 9mi
Dew Point: 28°   Wind: 8mph
Humidity: 79%   Direction: 20°NNE
Pressure: 30.04"   Gusts: NA
Location:  41.44°N, 90.72°W
Report Text: KMLI 271152Z 02007KT 9SM OVC037 01/M02 A3004 RMK AO2 SLP178 70007 T00111022 10022 20000 52023
Loading
Personal Weather Stations






























Interactive Weather Map New forecast layout! Learn more

10-Day Weather Forecast

Advertisements
Track Severe Weather on mobile